sensor_id;sensor_type;location;lat;lon;timestamp;pressure;altitude;pressure_sealevel;temperature;humidity
21096;BME280;10706;49.036;12.112;2022-09-03T00:00:14;97557.91;;;12.22;70.30
21096;BME280;10706;49.036;12.112;2022-09-03T00:03:27;97568.47;;;12.12;70.36
21096;BME280;10706;49.036;12.112;2022-09-03T00:15:10;97562.81;;;12.09;70.32
21096;BME280;10706;49.036;12.112;2022-09-03T00:17:26;97556.66;;;12.08;70.56
21096;BME280;10706;49.036;12.112;2022-09-03T00:20:11;97562.56;;;12.10;70.29
21096;BME280;10706;49.036;12.112;2022-09-03T00:22:56;97553.66;;;12.04;70.18
21096;BME280;10706;49.036;12.112;2022-09-03T00:25:38;97563.75;;;11.97;71.24
21096;BME280;10706;49.036;12.112;2022-09-03T00:28:14;97565.81;;;11.90;70.72
21096;BME280;10706;49.036;12.112;2022-09-03T00:30:45;97572.94;;;11.84;71.22
21096;BME280;10706;49.036;12.112;2022-09-03T00:33:22;97567.41;;;11.91;70.65
21096;BME280;10706;49.036;12.112;2022-09-03T00:38:31;97563.03;;;11.85;71.16
21096;BME280;10706;49.036;12.112;2022-09-03T00:46:45;97565.56;;;11.75;71.68
21096;BME280;10706;49.036;12.112;2022-09-03T00:52:29;97574.97;;;11.77;71.90
21096;BME280;10706;49.036;12.112;2022-09-03T00:55:16;97581.88;;;11.73;71.78
21096;BME280;10706;49.036;12.112;2022-09-03T01:00:25;97575.06;;;11.65;72.38
21096;BME280;10706;49.036;12.112;2022-09-03T01:03:05;97581.72;;;11.63;72.43
21096;BME280;10706;49.036;12.112;2022-09-03T01:06:16;97585.38;;;11.57;72.52
21096;BME280;10706;49.036;12.112;2022-09-03T01:12:00;97587.22;;;11.90;70.97
21096;BME280;10706;49.036;12.112;2022-09-03T01:15:11;97587.28;;;11.78;71.37
21096;BME280;10706;49.036;12.112;2022-09-03T01:18:14;97589.94;;;11.78;71.87
21096;BME280;10706;49.036;12.112;2022-09-03T01:27:14;97580.34;;;11.60;72.18
21096;BME280;10706;49.036;12.112;2022-09-03T01:30:03;97582.16;;;11.55;72.68
21096;BME280;10706;49.036;12.112;2022-09-03T01:32:40;97574.94;;;11.55;72.48
21096;BME280;10706;49.036;12.112;2022-09-03T01:35:37;97571.03;;;11.63;72.15
21096;BME280;10706;49.036;12.112;2022-09-03T01:39:12;97577.03;;;11.53;72.49
21096;BME280;10706;49.036;12.112;2022-09-03T01:50:54;97578.28;;;11.28;73.82
21096;BME280;10706;49.036;12.112;2022-09-03T02:00:15;97575.69;;;11.17;74.94
21096;BME280;10706;49.036;12.112;2022-09-03T02:02:45;97579.66;;;11.14;74.31
21096;BME280;10706;49.036;12.112;2022-09-03T02:05:22;97567.34;;;11.13;74.35
21096;BME280;10706;49.036;12.112;2022-09-03T02:07:55;97567.34;;;11.13;73.92
21096;BME280;10706;49.036;12.112;2022-09-03T02:10:32;97570.72;;;11.08;74.52
21096;BME280;10706;49.036;12.112;2022-09-03T02:13:09;97567.72;;;11.05;74.37
21096;BME280;10706;49.036;12.112;2022-09-03T02:15:39;97565.63;;;11.07;74.62
21096;BME280;10706;49.036;12.112;2022-09-03T02:18:14;97568.88;;;11.09;74.58
21096;BME280;10706;49.036;12.112;2022-09-03T02:20:41;97575.09;;;11.15;74.55
21096;BME280;10706;49.036;12.112;2022-09-03T02:23:08;97561.72;;;10.98;75.75
21096;BME280;10706;49.036;12.112;2022-09-03T02:25:40;97560.47;;;11.00;74.73
21096;BME280;10706;49.036;12.112;2022-09-03T02:28:08;97563.13;;;11.17;74.36
21096;BME280;10706;49.036;12.112;2022-09-03T02:30:35;97556.72;;;11.01;75.06
21096;BME280;10706;49.036;12.112;2022-09-03T02:33:01;97559.56;;;10.95;75.42
21096;BME280;10706;49.036;12.112;2022-09-03T02:35:27;97564.00;;;10.89;75.11
21096;BME280;10706;49.036;12.112;2022-09-03T02:37:53;97562.16;;;10.89;76.06
21096;BME280;10706;49.036;12.112;2022-09-03T02:40:19;97562.38;;;10.88;76.14
21096;BME280;10706;49.036;12.112;2022-09-03T02:42:46;97574.56;;;10.67;79.43
21096;BME280;10706;49.036;12.112;2022-09-03T02:45:27;97569.06;;;10.57;79.19
21096;BME280;10706;49.036;12.112;2022-09-03T02:47:58;97568.72;;;10.53;80.07
21096;BME280;10706;49.036;12.112;2022-09-03T02:50:25;97575.81;;;10.47;80.46
21096;BME280;10706;49.036;12.112;2022-09-03T02:52:51;97564.94;;;10.37;81.77
21096;BME280;10706;49.036;12.112;2022-09-03T02:55:18;97563.81;;;10.33;80.13
21096;BME280;10706;49.036;12.112;2022-09-03T02:57:45;97557.75;;;10.38;79.40
21096;BME280;10706;49.036;12.112;2022-09-03T03:00:12;97563.72;;;10.57;77.71
21096;BME280;10706;49.036;12.112;2022-09-03T03:02:38;97561.38;;;10.77;76.76
21096;BME280;10706;49.036;12.112;2022-09-03T03:05:05;97558.03;;;10.99;75.96
21096;BME280;10706;49.036;12.112;2022-09-03T03:07:39;97562.38;;;11.05;75.81
21096;BME280;10706;49.036;12.112;2022-09-03T03:10:05;97565.47;;;11.31;74.90
21096;BME280;10706;49.036;12.112;2022-09-03T03:12:31;97557.78;;;11.17;75.07
21096;BME280;10706;49.036;12.112;2022-09-03T03:14:57;97562.72;;;11.25;75.35
21096;BME280;10706;49.036;12.112;2022-09-03T03:17:23;97570.97;;;11.24;74.64
21096;BME280;10706;49.036;12.112;2022-09-03T03:19:49;97579.25;;;11.22;74.61
21096;BME280;10706;49.036;12.112;2022-09-03T03:22:14;97582.41;;;11.36;74.25
21096;BME280;10706;49.036;12.112;2022-09-03T03:24:40;97573.66;;;11.24;74.79
21096;BME280;10706;49.036;12.112;2022-09-03T03:27:06;97578.19;;;11.40;74.37
21096;BME280;10706;49.036;12.112;2022-09-03T03:29:35;97585.41;;;11.23;74.82
21096;BME280;10706;49.036;12.112;2022-09-03T03:32:01;97579.50;;;11.21;75.31
21096;BME280;10706;49.036;12.112;2022-09-03T03:34:27;97581.28;;;11.32;75.07
21096;BME280;10706;49.036;12.112;2022-09-03T03:36:52;97574.63;;;11.18;75.51
21096;BME280;10706;49.036;12.112;2022-09-03T03:39:18;97567.97;;;11.20;75.05
21096;BME280;10706;49.036;12.112;2022-09-03T03:41:45;97561.44;;;11.45;74.52
21096;BME280;10706;49.036;12.112;2022-09-03T03:44:11;97568.16;;;11.31;75.72
21096;BME280;10706;49.036;12.112;2022-09-03T03:46:40;97569.53;;;11.16;75.78
21096;BME280;10706;49.036;12.112;2022-09-03T03:49:07;97575.75;;;11.05;76.77
21096;BME280;10706;49.036;12.112;2022-09-03T03:51:34;97573.63;;;10.90;78.07
21096;BME280;10706;49.036;12.112;2022-09-03T03:54:01;97578.81;;;10.80;78.03
21096;BME280;10706;49.036;12.112;2022-09-03T03:56:27;97576.13;;;10.80;77.62
21096;BME280;10706;49.036;12.112;2022-09-03T03:58:53;97579.59;;;10.80;77.64
21096;BME280;10706;49.036;12.112;2022-09-03T04:01:22;97577.47;;;10.65;78.72
21096;BME280;10706;49.036;12.112;2022-09-03T04:03:48;97580.59;;;10.74;78.17
21096;BME280;10706;49.036;12.112;2022-09-03T04:06:17;97582.69;;;10.72;77.74
21096;BME280;10706;49.036;12.112;2022-09-03T04:08:46;97581.00;;;10.54;79.17
21096;BME280;10706;49.036;12.112;2022-09-03T04:11:16;97583.69;;;10.54;78.34
21096;BME280;10706;49.036;12.112;2022-09-03T04:13:44;97577.00;;;10.40;80.25
21096;BME280;10706;49.036;12.112;2022-09-03T04:16:19;97576.09;;;10.34;79.58
21096;BME280;10706;49.036;12.112;2022-09-03T04:18:46;97578.06;;;10.27;81.00
21096;BME280;10706;49.036;12.112;2022-09-03T04:21:17;97566.81;;;10.25;80.56
21096;BME280;10706;49.036;12.112;2022-09-03T04:23:46;97572.63;;;10.22;81.36
21096;BME280;10706;49.036;12.112;2022-09-03T04:26:15;97576.31;;;10.21;82.57
21096;BME280;10706;49.036;12.112;2022-09-03T04:28:41;97575.75;;;10.19;82.16
21096;BME280;10706;49.036;12.112;2022-09-03T04:31:10;97577.50;;;10.13;82.76
21096;BME280;10706;49.036;12.112;2022-09-03T04:33:36;97578.47;;;10.07;83.09
21096;BME280;10706;49.036;12.112;2022-09-03T04:38:34;97584.41;;;9.97;84.35
21096;BME280;10706;49.036;12.112;2022-09-03T04:41:01;97581.97;;;9.96;84.64
21096;BME280;10706;49.036;12.112;2022-09-03T04:43:28;97577.22;;;9.98;84.90
21096;BME280;10706;49.036;12.112;2022-09-03T04:45:59;97585.78;;;10.00;85.28
21096;BME280;10706;49.036;12.112;2022-09-03T04:48:26;97589.50;;;9.99;85.29
21096;BME280;10706;49.036;12.112;2022-09-03T04:50:53;97589.03;;;10.02;84.32
21096;BME280;10706;49.036;12.112;2022-09-03T04:53:19;97593.75;;;10.11;84.60
21096;BME280;10706;49.036;12.112;2022-09-03T04:55:45;97598.84;;;10.13;83.87
21096;BME280;10706;49.036;12.112;2022-09-03T04:58:11;97599.34;;;10.10;83.83
21096;BME280;10706;49.036;12.112;2022-09-03T05:00:37;97599.00;;;10.06;84.74
21096;BME280;10706;49.036;12.112;2022-09-03T05:03:03;97593.66;;;10.06;84.22
21096;BME280;10706;49.036;12.112;2022-09-03T05:05:32;97599.19;;;10.17;85.54
21096;BME280;10706;49.036;12.112;2022-09-03T05:07:59;97589.94;;;10.19;84.70
21096;BME280;10706;49.036;12.112;2022-09-03T05:10:29;97597.69;;;10.21;84.08
21096;BME280;10706;49.036;12.112;2022-09-03T05:13:01;97596.88;;;10.20;84.72
21096;BME280;10706;49.036;12.112;2022-09-03T05:15:29;97599.53;;;10.20;83.19
21096;BME280;10706;49.036;12.112;2022-09-03T05:17:59;97600.69;;;10.24;83.44
21096;BME280;10706;49.036;12.112;2022-09-03T05:20:29;97596.63;;;10.34;83.38
21096;BME280;10706;49.036;12.112;2022-09-03T05:22:59;97594.41;;;10.42;82.39
21096;BME280;10706;49.036;12.112;2022-09-03T05:25:25;97591.13;;;10.52;81.79
21096;BME280;10706;49.036;12.112;2022-09-03T05:27:51;97594.97;;;10.73;80.59
21096;BME280;10706;49.036;12.112;2022-09-03T05:30:18;97599.53;;;10.89;81.44
21096;BME280;10706;49.036;12.112;2022-09-03T05:32:47;97597.69;;;11.07;80.06
21096;BME280;10706;49.036;12.112;2022-09-03T05:35:13;97599.16;;;11.15;80.67
21096;BME280;10706;49.036;12.112;2022-09-03T05:37:39;97599.66;;;11.28;78.38
21096;BME280;10706;49.036;12.112;2022-09-03T05:40:05;97599.53;;;11.74;75.40
21096;BME280;10706;49.036;12.112;2022-09-03T05:42:32;97598.84;;;11.84;74.72
21096;BME280;10706;49.036;12.112;2022-09-03T05:45:08;97597.84;;;11.68;75.25
21096;BME280;10706;49.036;12.112;2022-09-03T05:47:37;97596.97;;;11.62;75.96
21096;BME280;10706;49.036;12.112;2022-09-03T05:50:06;97598.66;;;11.68;75.43
21096;BME280;10706;49.036;12.112;2022-09-03T05:52:34;97596.41;;;11.60;76.72
21096;BME280;10706;49.036;12.112;2022-09-03T05:55:00;97602.56;;;11.61;76.96
21096;BME280;10706;49.036;12.112;2022-09-03T05:57:26;97596.31;;;11.55;77.30
21096;BME280;10706;49.036;12.112;2022-09-03T05:59:54;97603.47;;;11.50;78.30
21096;BME280;10706;49.036;12.112;2022-09-03T06:02:19;97595.34;;;11.44;77.77
21096;BME280;10706;49.036;12.112;2022-09-03T06:04:45;97597.31;;;11.49;79.09
21096;BME280;10706;49.036;12.112;2022-09-03T06:07:11;97590.81;;;11.62;78.60
21096;BME280;10706;49.036;12.112;2022-09-03T06:09:37;97599.28;;;11.76;78.15
21096;BME280;10706;49.036;12.112;2022-09-03T06:12:03;97606.50;;;11.92;76.51
21096;BME280;10706;49.036;12.112;2022-09-03T06:14:28;97607.94;;;12.00;75.38
21096;BME280;10706;49.036;12.112;2022-09-03T06:16:54;97605.34;;;12.27;73.87
21096;BME280;10706;49.036;12.112;2022-09-03T06:19:21;97612.50;;;12.43;74.03
21096;BME280;10706;49.036;12.112;2022-09-03T06:21:47;97623.59;;;12.30;73.72
21096;BME280;10706;49.036;12.112;2022-09-03T06:24:18;97610.13;;;12.25;74.97
21096;BME280;10706;49.036;12.112;2022-09-03T06:26:47;97608.63;;;12.34;74.10
21096;BME280;10706;49.036;12.112;2022-09-03T06:29:14;97604.66;;;12.37;74.52
21096;BME280;10706;49.036;12.112;2022-09-03T06:31:40;97613.38;;;12.49;73.74
21096;BME280;10706;49.036;12.112;2022-09-03T06:34:06;97617.78;;;12.60;73.24
21096;BME280;10706;49.036;12.112;2022-09-03T06:36:32;97609.19;;;12.58;73.01
21096;BME280;10706;49.036;12.112;2022-09-03T06:38:58;97600.69;;;12.67;73.25
21096;BME280;10706;49.036;12.112;2022-09-03T06:41:30;97625.19;;;12.75;72.92
21096;BME280;10706;49.036;12.112;2022-09-03T06:44:02;97628.22;;;12.84;73.60
21096;BME280;10706;49.036;12.112;2022-09-03T06:46:31;97626.09;;;12.86;72.23
21096;BME280;10706;49.036;12.112;2022-09-03T06:48:57;97623.25;;;12.98;71.91
21096;BME280;10706;49.036;12.112;2022-09-03T06:51:29;97624.78;;;13.16;71.69
21096;BME280;10706;49.036;12.112;2022-09-03T06:54:02;97630.84;;;13.33;70.71
21096;BME280;10706;49.036;12.112;2022-09-03T06:56:29;97632.53;;;13.45;70.48
21096;BME280;10706;49.036;12.112;2022-09-03T06:59:02;97629.81;;;13.39;70.80
21096;BME280;10706;49.036;12.112;2022-09-03T07:01:30;97638.66;;;13.40;70.32
21096;BME280;10706;49.036;12.112;2022-09-03T07:04:02;97641.94;;;13.42;70.65
21096;BME280;10706;49.036;12.112;2022-09-03T07:06:31;97638.25;;;13.53;69.68
21096;BME280;10706;49.036;12.112;2022-09-03T07:08:58;97631.91;;;13.65;70.45
21096;BME280;10706;49.036;12.112;2022-09-03T07:11:27;97631.97;;;13.75;69.88
21096;BME280;10706;49.036;12.112;2022-09-03T07:13:56;97634.31;;;14.09;67.51
21096;BME280;10706;49.036;12.112;2022-09-03T07:16:26;97618.25;;;14.14;67.78
21096;BME280;10706;49.036;12.112;2022-09-03T07:18:52;97622.56;;;14.20;67.06
21096;BME280;10706;49.036;12.112;2022-09-03T07:21:30;97621.59;;;14.42;66.28
21096;BME280;10706;49.036;12.112;2022-09-03T07:23:56;97618.13;;;14.51;67.08
21096;BME280;10706;49.036;12.112;2022-09-03T07:26:31;97618.13;;;14.51;65.68
21096;BME280;10706;49.036;12.112;2022-09-03T07:28:58;97619.19;;;14.50;63.82
21096;BME280;10706;49.036;12.112;2022-09-03T07:31:30;97619.19;;;14.50;64.39
21096;BME280;10706;49.036;12.112;2022-09-03T07:33:58;97625.75;;;14.70;65.75
21096;BME280;10706;49.036;12.112;2022-09-03T07:36:27;97631.69;;;14.82;63.68
21096;BME280;10706;49.036;12.112;2022-09-03T07:38:55;97632.00;;;14.96;63.68
21096;BME280;10706;49.036;12.112;2022-09-03T07:41:22;97644.91;;;15.09;62.44
21096;BME280;10706;49.036;12.112;2022-09-03T07:43:49;97639.81;;;15.08;61.62
21096;BME280;10706;49.036;12.112;2022-09-03T07:46:21;97643.03;;;15.15;61.39
21096;BME280;10706;49.036;12.112;2022-09-03T07:48:56;97636.59;;;15.21;60.62
21096;BME280;10706;49.036;12.112;2022-09-03T07:51:29;97639.28;;;15.42;61.68
21096;BME280;10706;49.036;12.112;2022-09-03T07:53:57;97640.63;;;15.60;60.93
21096;BME280;10706;49.036;12.112;2022-09-03T07:56:25;97635.81;;;15.77;61.49
21096;BME280;10706;49.036;12.112;2022-09-03T07:58:51;97643.88;;;15.98;60.96
21096;BME280;10706;49.036;12.112;2022-09-03T08:01:20;97638.97;;;16.15;58.45
21096;BME280;10706;49.036;12.112;2022-09-03T08:03:49;97631.41;;;16.27;58.65
21096;BME280;10706;49.036;12.112;2022-09-03T08:06:18;97637.09;;;16.81;58.04
21096;BME280;10706;49.036;12.112;2022-09-03T08:08:44;97639.44;;;16.98;57.42
21096;BME280;10706;49.036;12.112;2022-09-03T08:11:16;97644.53;;;17.04;57.42
21096;BME280;10706;49.036;12.112;2022-09-03T08:13:48;97642.56;;;17.15;56.96
21096;BME280;10706;49.036;12.112;2022-09-03T08:16:18;97636.88;;;17.22;56.49
21096;BME280;10706;49.036;12.112;2022-09-03T08:18:44;97640.53;;;17.71;55.40
21096;BME280;10706;49.036;12.112;2022-09-03T08:21:17;97647.66;;;17.56;56.06
21096;BME280;10706;49.036;12.112;2022-09-03T08:23:50;97643.81;;;17.62;56.80
21096;BME280;10706;49.036;12.112;2022-09-03T08:26:18;97652.94;;;17.72;55.76
21096;BME280;10706;49.036;12.112;2022-09-03T08:28:44;97642.31;;;17.85;55.10
21096;BME280;10706;49.036;12.112;2022-09-03T08:31:21;97633.50;;;18.04;52.95
21096;BME280;10706;49.036;12.112;2022-09-03T08:33:54;97634.75;;;18.12;55.74
21096;BME280;10706;49.036;12.112;2022-09-03T08:36:26;97632.06;;;18.36;54.33
21096;BME280;10706;49.036;12.112;2022-09-03T08:38:53;97640.44;;;18.58;52.11
21096;BME280;10706;49.036;12.112;2022-09-03T08:42:02;97638.16;;;18.65;53.50
21096;BME280;10706;49.036;12.112;2022-09-03T08:44:51;97641.16;;;18.45;53.46
21096;BME280;10706;49.036;12.112;2022-09-03T08:47:40;97650.41;;;18.39;53.52
21096;BME280;10706;49.036;12.112;2022-09-03T08:50:30;97636.50;;;18.26;54.27
21096;BME280;10706;49.036;12.112;2022-09-03T08:53:10;97636.81;;;18.20;52.93
21096;BME280;10706;49.036;12.112;2022-09-03T08:56:09;97638.53;;;18.11;55.92
21096;BME280;10706;49.036;12.112;2022-09-03T08:58:37;97638.59;;;18.05;54.64
21096;BME280;10706;49.036;12.112;2022-09-03T09:01:12;97638.75;;;17.90;54.18
21096;BME280;10706;49.036;12.112;2022-09-03T09:06:58;97636.31;;;18.18;55.41
21096;BME280;10706;49.036;12.112;2022-09-03T09:15:03;97631.63;;;18.72;53.83
21096;BME280;10706;49.036;12.112;2022-09-03T09:20:41;97627.09;;;18.43;53.06
21096;BME280;10706;49.036;12.112;2022-09-03T09:23:35;97618.41;;;17.98;54.12
21096;BME280;10706;49.036;12.112;2022-09-03T09:26:07;97620.59;;;18.20;55.74
21096;BME280;10706;49.036;12.112;2022-09-03T09:28:37;97626.00;;;18.20;53.49
21096;BME280;10706;49.036;12.112;2022-09-03T09:31:09;97623.81;;;18.22;56.71
21096;BME280;10706;49.036;12.112;2022-09-03T09:33:37;97617.06;;;18.24;56.42
21096;BME280;10706;49.036;12.112;2022-09-03T09:36:08;97623.47;;;18.04;55.76
21096;BME280;10706;49.036;12.112;2022-09-03T09:38:38;97622.53;;;18.19;57.03
21096;BME280;10706;49.036;12.112;2022-09-03T09:41:16;97610.25;;;18.03;56.21
21096;BME280;10706;49.036;12.112;2022-09-03T09:43:46;97614.16;;;17.92;57.20
21096;BME280;10706;49.036;12.112;2022-09-03T09:46:25;97615.22;;;17.61;56.25
21096;BME280;10706;49.036;12.112;2022-09-03T09:48:57;97613.91;;;17.59;58.26
21096;BME280;10706;49.036;12.112;2022-09-03T09:51:28;97614.19;;;17.86;58.49
21096;BME280;10706;49.036;12.112;2022-09-03T09:54:07;97605.56;;;18.14;56.16
21096;BME280;10706;49.036;12.112;2022-09-03T09:56:35;97603.22;;;18.50;56.86
21096;BME280;10706;49.036;12.112;2022-09-03T09:59:07;97602.44;;;18.69;54.80
21096;BME280;10706;49.036;12.112;2022-09-03T10:01:45;97597.06;;;18.88;55.85
21096;BME280;10706;49.036;12.112;2022-09-03T10:04:24;97597.13;;;18.82;54.67
21096;BME280;10706;49.036;12.112;2022-09-03T10:09:31;97591.34;;;19.08;56.02
21096;BME280;10706;49.036;12.112;2022-09-03T10:12:32;97591.22;;;19.18;54.99
21096;BME280;10706;49.036;12.112;2022-09-03T10:15:21;97595.72;;;19.23;54.04
21096;BME280;10706;49.036;12.112;2022-09-03T10:23:26;97595.56;;;19.66;55.21
21096;BME280;10706;49.036;12.112;2022-09-03T10:26:10;97597.19;;;19.67;55.03
21096;BME280;10706;49.036;12.112;2022-09-03T10:28:38;97590.78;;;19.77;53.10
21096;BME280;10706;49.036;12.112;2022-09-03T10:37:37;97583.78;;;20.17;52.15
21096;BME280;10706;49.036;12.112;2022-09-03T10:40:39;97590.41;;;20.25;51.18
21096;BME280;10706;49.036;12.112;2022-09-03T10:43:48;97580.38;;;20.26;49.63
21096;BME280;10706;49.036;12.112;2022-09-03T10:46:15;97586.41;;;20.09;51.30
21096;BME280;10706;49.036;12.112;2022-09-03T10:52:44;97590.94;;;20.91;49.73
21096;BME280;10706;49.036;12.112;2022-09-03T11:00:57;97583.72;;;21.46;50.02
21096;BME280;10706;49.036;12.112;2022-09-03T11:04:39;97579.88;;;21.47;48.69
21096;BME280;10706;49.036;12.112;2022-09-03T11:06:59;97578.97;;;21.51;49.45
21096;BME280;10706;49.036;12.112;2022-09-03T11:09:40;97576.75;;;21.62;48.70
21096;BME280;10706;49.036;12.112;2022-09-03T11:12:12;97575.78;;;21.58;47.70
21096;BME280;10706;49.036;12.112;2022-09-03T11:14:49;97576.81;;;21.71;47.95
21096;BME280;10706;49.036;12.112;2022-09-03T11:17:27;97576.22;;;21.74;47.85
21096;BME280;10706;49.036;12.112;2022-09-03T11:20:20;97564.81;;;22.03;50.04
21096;BME280;10706;49.036;12.112;2022-09-03T11:22:49;97558.13;;;22.58;47.27
21096;BME280;10706;49.036;12.112;2022-09-03T11:25:20;97558.31;;;22.22;47.06
21096;BME280;10706;49.036;12.112;2022-09-03T11:28:19;97563.41;;;22.06;44.94
21096;BME280;10706;49.036;12.112;2022-09-03T11:33:50;97552.84;;;22.62;45.82
21096;BME280;10706;49.036;12.112;2022-09-03T11:36:37;97551.25;;;23.13;45.97
21096;BME280;10706;49.036;12.112;2022-09-03T11:39:33;97561.63;;;22.76;45.97
21096;BME280;10706;49.036;12.112;2022-09-03T11:42:04;97568.22;;;22.18;44.96
21096;BME280;10706;49.036;12.112;2022-09-03T11:44:39;97560.28;;;21.90;46.23
21096;BME280;10706;49.036;12.112;2022-09-03T11:47:41;97554.75;;;22.12;46.56
21096;BME280;10706;49.036;12.112;2022-09-03T11:52:46;97560.25;;;21.81;46.30
21096;BME280;10706;49.036;12.112;2022-09-03T11:55:31;97564.84;;;21.72;45.83
21096;BME280;10706;49.036;12.112;2022-09-03T11:58:22;97560.22;;;21.72;46.53
21096;BME280;10706;49.036;12.112;2022-09-03T12:00:49;97557.59;;;21.99;48.49
21096;BME280;10706;49.036;12.112;2022-09-03T12:03:58;97560.31;;;22.39;47.23
21096;BME280;10706;49.036;12.112;2022-09-03T12:18:08;97553.97;;;22.69;45.21
21096;BME280;10706;49.036;12.112;2022-09-03T12:20:46;97555.97;;;22.29;45.83
21096;BME280;10706;49.036;12.112;2022-09-03T12:23:48;97550.09;;;22.04;46.28
21096;BME280;10706;49.036;12.112;2022-09-03T12:26:23;97543.69;;;22.58;47.10
21096;BME280;10706;49.036;12.112;2022-09-03T12:28:58;97539.22;;;22.70;45.71
21096;BME280;10706;49.036;12.112;2022-09-03T12:31:30;97537.44;;;22.57;46.26
21096;BME280;10706;49.036;12.112;2022-09-03T12:34:02;97540.00;;;22.71;45.76
21096;BME280;10706;49.036;12.112;2022-09-03T12:36:44;97535.69;;;22.52;46.16
21096;BME280;10706;49.036;12.112;2022-09-03T12:42:02;97527.53;;;22.52;46.67
21096;BME280;10706;49.036;12.112;2022-09-03T12:47:22;97510.22;;;23.27;45.18
21096;BME280;10706;49.036;12.112;2022-09-03T12:49:51;97507.38;;;22.62;46.51
21096;BME280;10706;49.036;12.112;2022-09-03T12:52:31;97514.72;;;21.96;47.21
21096;BME280;10706;49.036;12.112;2022-09-03T12:55:07;97511.34;;;21.90;48.12
21096;BME280;10706;49.036;12.112;2022-09-03T12:57:46;97508.94;;;22.28;50.56
21096;BME280;10706;49.036;12.112;2022-09-03T13:00:16;97507.19;;;22.41;49.28
21096;BME280;10706;49.036;12.112;2022-09-03T13:03:28;97513.22;;;22.21;49.56
21096;BME280;10706;49.036;12.112;2022-09-03T13:06:00;97504.16;;;21.85;48.44
21096;BME280;10706;49.036;12.112;2022-09-03T13:08:40;97498.72;;;21.94;52.25
21096;BME280;10706;49.036;12.112;2022-09-03T13:11:09;97508.69;;;21.36;50.44
21096;BME280;10706;49.036;12.112;2022-09-03T13:13:36;97512.50;;;21.35;49.72
21096;BME280;10706;49.036;12.112;2022-09-03T13:18:56;97501.09;;;21.24;54.00
21096;BME280;10706;49.036;12.112;2022-09-03T13:21:45;97508.88;;;20.94;51.74
21096;BME280;10706;49.036;12.112;2022-09-03T13:24:47;97517.94;;;20.67;52.32
21096;BME280;10706;49.036;12.112;2022-09-03T13:30:55;97513.03;;;20.55;52.55
21096;BME280;10706;49.036;12.112;2022-09-03T13:33:48;97507.63;;;20.55;53.24
21096;BME280;10706;49.036;12.112;2022-09-03T13:36:20;97521.09;;;20.47;54.08
21096;BME280;10706;49.036;12.112;2022-09-03T13:39:02;97521.63;;;20.35;53.88
21096;BME280;10706;49.036;12.112;2022-09-03T13:41:50;97522.81;;;20.29;53.77
21096;BME280;10706;49.036;12.112;2022-09-03T13:44:46;97520.91;;;20.43;54.60
21096;BME280;10706;49.036;12.112;2022-09-03T13:47:39;97524.53;;;20.38;54.42
21096;BME280;10706;49.036;12.112;2022-09-03T13:50:36;97520.69;;;20.39;53.86
21096;BME280;10706;49.036;12.112;2022-09-03T13:55:55;97524.38;;;20.57;55.35
21096;BME280;10706;49.036;12.112;2022-09-03T13:58:33;97530.50;;;20.49;53.79
21096;BME280;10706;49.036;12.112;2022-09-03T14:04:00;97527.50;;;20.51;54.28
21096;BME280;10706;49.036;12.112;2022-09-03T14:06:51;97524.66;;;20.70;55.73
21096;BME280;10706;49.036;12.112;2022-09-03T14:10:00;97514.19;;;20.41;54.25
21096;BME280;10706;49.036;12.112;2022-09-03T14:12:48;97525.72;;;20.32;55.58
21096;BME280;10706;49.036;12.112;2022-09-03T14:15:31;97531.16;;;20.32;55.24
21096;BME280;10706;49.036;12.112;2022-09-03T14:18:22;97527.53;;;20.37;57.14
21096;BME280;10706;49.036;12.112;2022-09-03T14:21:04;97531.28;;;20.27;55.31
21096;BME280;10706;49.036;12.112;2022-09-03T14:23:58;97528.75;;;20.31;56.64
21096;BME280;10706;49.036;12.112;2022-09-03T14:26:35;97527.34;;;20.19;59.09
21096;BME280;10706;49.036;12.112;2022-09-03T14:50:08;97545.66;;;19.86;59.52
21096;BME280;10706;49.036;12.112;2022-09-03T15:01:32;97543.03;;;19.95;59.57
21096;BME280;10706;49.036;12.112;2022-09-03T15:10:46;97540.81;;;19.97;61.97
21096;BME280;10706;49.036;12.112;2022-09-03T15:13:23;97539.94;;;19.88;63.75
21096;BME280;10706;49.036;12.112;2022-09-03T15:28:37;97515.44;;;20.07;63.95
21096;BME280;10706;49.036;12.112;2022-09-03T15:33:41;97500.94;;;20.25;62.01
21096;BME280;10706;49.036;12.112;2022-09-03T15:36:21;97506.94;;;20.36;61.57
21096;BME280;10706;49.036;12.112;2022-09-03T15:39:04;97503.19;;;20.46;60.37
21096;BME280;10706;49.036;12.112;2022-09-03T15:41:49;97495.44;;;20.53;60.10
21096;BME280;10706;49.036;12.112;2022-09-03T15:44:17;97506.53;;;20.43;59.49
21096;BME280;10706;49.036;12.112;2022-09-03T15:47:04;97496.44;;;20.57;61.63
21096;BME280;10706;49.036;12.112;2022-09-03T15:50:12;97487.91;;;20.64;60.17
21096;BME280;10706;49.036;12.112;2022-09-03T15:52:56;97482.38;;;20.69;59.75
21096;BME280;10706;49.036;12.112;2022-09-03T15:55:36;97482.25;;;20.74;59.71
21096;BME280;10706;49.036;12.112;2022-09-03T15:58:40;97492.25;;;20.87;56.87
21096;BME280;10706;49.036;12.112;2022-09-03T16:01:42;97496.13;;;20.72;58.09
21096;BME280;10706;49.036;12.112;2022-09-03T16:07:28;97490.72;;;20.58;59.78
21096;BME280;10706;49.036;12.112;2022-09-03T16:10:09;97498.56;;;20.60;58.65
21096;BME280;10706;49.036;12.112;2022-09-03T16:16:06;97511.97;;;20.43;58.84
21096;BME280;10706;49.036;12.112;2022-09-03T16:19:04;97508.56;;;20.37;60.49
21096;BME280;10706;49.036;12.112;2022-09-03T16:21:50;97520.34;;;20.05;60.39
21096;BME280;10706;49.036;12.112;2022-09-03T16:24:31;97527.78;;;19.85;61.23
21096;BME280;10706;49.036;12.112;2022-09-03T16:27:16;97526.19;;;19.84;62.24
21096;BME280;10706;49.036;12.112;2022-09-03T16:30:45;97522.34;;;19.85;61.54